sensor_id;sensor_type;location;lat;lon;timestamp;P1;durP1;ratioP1;P2;durP2;ratioP2
29218;SDS011;16421;50.202;7.852;2022-11-20T00:04:35;8.48;;;5.25;;
29218;SDS011;16421;50.202;7.852;2022-11-20T00:09:38;8.48;;;5.20;;
29218;SDS011;16421;50.202;7.852;2022-11-20T00:14:42;9.20;;;4.85;;
29218;SDS011;16421;50.202;7.852;2022-11-20T00:19:47;7.05;;;4.68;;
29218;SDS011;16421;50.202;7.852;2022-11-20T00:24:50;7.68;;;4.38;;
29218;SDS011;16421;50.202;7.852;2022-11-20T00:29:53;7.57;;;4.93;;
29218;SDS011;16421;50.202;7.852;2022-11-20T00:34:58;6.55;;;4.25;;
29218;SDS011;16421;50.202;7.852;2022-11-20T00:40:02;7.20;;;4.78;;
29218;SDS011;16421;50.202;7.852;2022-11-20T00:45:06;7.85;;;5.60;;
29218;SDS011;16421;50.202;7.852;2022-11-20T00:50:11;6.45;;;4.43;;
29218;SDS011;16421;50.202;7.852;2022-11-20T00:55:14;9.80;;;6.47;;
29218;SDS011;16421;50.202;7.852;2022-11-20T01:00:18;9.05;;;5.78;;
29218;SDS011;16421;50.202;7.852;2022-11-20T01:05:22;7.45;;;4.75;;
29218;SDS011;16421;50.202;7.852;2022-11-20T01:10:26;7.43;;;4.95;;
29218;SDS011;16421;50.202;7.852;2022-11-20T01:15:29;7.07;;;4.30;;
29218;SDS011;16421;50.202;7.852;2022-11-20T01:20:35;7.63;;;4.63;;
29218;SDS011;16421;50.202;7.852;2022-11-20T01:25:38;6.30;;;4.15;;
29218;SDS011;16421;50.202;7.852;2022-11-20T01:30:42;7.75;;;4.95;;
29218;SDS011;16421;50.202;7.852;2022-11-20T01:35:47;8.80;;;5.63;;
29218;SDS011;16421;50.202;7.852;2022-11-20T01:40:53;7.53;;;4.68;;
29218;SDS011;16421;50.202;7.852;2022-11-20T01:45:59;8.07;;;5.03;;
29218;SDS011;16421;50.202;7.852;2022-11-20T01:51:12;6.20;;;4.05;;
29218;SDS011;16421;50.202;7.852;2022-11-20T01:56:19;7.28;;;4.78;;
29218;SDS011;16421;50.202;7.852;2022-11-20T02:01:23;10.77;;;7.07;;
29218;SDS011;16421;50.202;7.852;2022-11-20T02:06:29;11.60;;;7.22;;
29218;SDS011;16421;50.202;7.852;2022-11-20T02:11:37;7.07;;;4.85;;
29218;SDS011;16421;50.202;7.852;2022-11-20T02:16:44;9.73;;;6.53;;
29218;SDS011;16421;50.202;7.852;2022-11-20T02:21:52;7.32;;;5.10;;
29218;SDS011;16421;50.202;7.852;2022-11-20T02:27:05;7.90;;;4.90;;
29218;SDS011;16421;50.202;7.852;2022-11-20T02:32:17;10.98;;;7.50;;
29218;SDS011;16421;50.202;7.852;2022-11-20T02:37:21;8.13;;;5.13;;
29218;SDS011;16421;50.202;7.852;2022-11-20T02:42:27;6.30;;;4.28;;
29218;SDS011;16421;50.202;7.852;2022-11-20T02:47:30;7.65;;;4.85;;
29218;SDS011;16421;50.202;7.852;2022-11-20T02:52:34;7.47;;;4.22;;
29218;SDS011;16421;50.202;7.852;2022-11-20T02:57:39;6.47;;;4.15;;
29218;SDS011;16421;50.202;7.852;2022-11-20T03:02:42;5.72;;;4.05;;
29218;SDS011;16421;50.202;7.852;2022-11-20T03:07:45;5.65;;;4.05;;
29218;SDS011;16421;50.202;7.852;2022-11-20T03:12:54;6.60;;;4.32;;
29218;SDS011;16421;50.202;7.852;2022-11-20T03:17:58;7.85;;;5.18;;
29218;SDS011;16421;50.202;7.852;2022-11-20T03:23:01;7.43;;;4.60;;
29218;SDS011;16421;50.202;7.852;2022-11-20T03:28:06;8.25;;;5.13;;
29218;SDS011;16421;50.202;7.852;2022-11-20T03:33:09;6.78;;;4.57;;
29218;SDS011;16421;50.202;7.852;2022-11-20T03:38:13;7.80;;;4.70;;
29218;SDS011;16421;50.202;7.852;2022-11-20T03:43:17;6.47;;;4.72;;
29218;SDS011;16421;50.202;7.852;2022-11-20T03:48:21;5.68;;;3.80;;
29218;SDS011;16421;50.202;7.852;2022-11-20T03:53:24;6.85;;;4.57;;
29218;SDS011;16421;50.202;7.852;2022-11-20T03:58:29;6.80;;;4.22;;
29218;SDS011;16421;50.202;7.852;2022-11-20T04:03:32;7.35;;;4.30;;
29218;SDS011;16421;50.202;7.852;2022-11-20T04:08:36;6.82;;;4.57;;
29218;SDS011;16421;50.202;7.852;2022-11-20T04:13:41;7.00;;;4.57;;
29218;SDS011;16421;50.202;7.852;2022-11-20T04:18:45;6.87;;;4.40;;
29218;SDS011;16421;50.202;7.852;2022-11-20T04:23:48;5.88;;;4.00;;
29218;SDS011;16421;50.202;7.852;2022-11-20T04:28:53;6.22;;;4.53;;
29218;SDS011;16421;50.202;7.852;2022-11-20T04:33:58;10.02;;;5.32;;
29218;SDS011;16421;50.202;7.852;2022-11-20T04:39:03;9.25;;;5.00;;
29218;SDS011;16421;50.202;7.852;2022-11-20T04:44:09;8.52;;;4.95;;
29218;SDS011;16421;50.202;7.852;2022-11-20T04:49:13;7.05;;;4.43;;
29218;SDS011;16421;50.202;7.852;2022-11-20T04:54:17;5.72;;;3.92;;
29218;SDS011;16421;50.202;7.852;2022-11-20T04:59:23;9.15;;;5.00;;
29218;SDS011;16421;50.202;7.852;2022-11-20T05:04:26;7.00;;;4.60;;
29218;SDS011;16421;50.202;7.852;2022-11-20T05:09:30;8.98;;;5.82;;
29218;SDS011;16421;50.202;7.852;2022-11-20T05:14:35;8.75;;;4.78;;
29218;SDS011;16421;50.202;7.852;2022-11-20T05:19:38;8.88;;;4.60;;
29218;SDS011;16421;50.202;7.852;2022-11-20T05:24:41;8.48;;;5.13;;
29218;SDS011;16421;50.202;7.852;2022-11-20T05:29:46;8.48;;;4.95;;
29218;SDS011;16421;50.202;7.852;2022-11-20T05:34:49;8.48;;;5.25;;
29218;SDS011;16421;50.202;7.852;2022-11-20T05:39:53;8.55;;;5.05;;
29218;SDS011;16421;50.202;7.852;2022-11-20T05:44:58;8.70;;;4.65;;
29218;SDS011;16421;50.202;7.852;2022-11-20T05:50:02;6.50;;;3.50;;
29218;SDS011;16421;50.202;7.852;2022-11-20T05:55:06;8.75;;;4.43;;
29218;SDS011;16421;50.202;7.852;2022-11-20T06:00:12;8.30;;;5.15;;
29218;SDS011;16421;50.202;7.852;2022-11-20T06:05:16;7.85;;;5.00;;
29218;SDS011;16421;50.202;7.852;2022-11-20T06:10:20;7.10;;;4.00;;
29218;SDS011;16421;50.202;7.852;2022-11-20T06:15:25;7.50;;;4.85;;
29218;SDS011;16421;50.202;7.852;2022-11-20T06:20:28;7.28;;;4.32;;
29218;SDS011;16421;50.202;7.852;2022-11-20T06:25:31;7.60;;;4.53;;
29218;SDS011;16421;50.202;7.852;2022-11-20T06:30:36;8.23;;;4.75;;
29218;SDS011;16421;50.202;7.852;2022-11-20T06:35:39;8.30;;;4.53;;
29218;SDS011;16421;50.202;7.852;2022-11-20T06:40:43;7.80;;;4.50;;
29218;SDS011;16421;50.202;7.852;2022-11-20T06:45:52;9.73;;;4.90;;
29218;SDS011;16421;50.202;7.852;2022-11-20T06:50:55;8.32;;;4.85;;
29218;SDS011;16421;50.202;7.852;2022-11-20T06:55:59;8.18;;;5.07;;
29218;SDS011;16421;50.202;7.852;2022-11-20T07:01:05;8.85;;;4.78;;
29218;SDS011;16421;50.202;7.852;2022-11-20T07:06:09;6.22;;;3.90;;
29218;SDS011;16421;50.202;7.852;2022-11-20T07:11:13;6.28;;;4.22;;
29218;SDS011;16421;50.202;7.852;2022-11-20T07:16:18;6.68;;;4.05;;
29218;SDS011;16421;50.202;7.852;2022-11-20T07:21:21;8.55;;;4.65;;
29218;SDS011;16421;50.202;7.852;2022-11-20T07:26:25;7.95;;;4.25;;
29218;SDS011;16421;50.202;7.852;2022-11-20T07:31:29;6.97;;;4.43;;
29218;SDS011;16421;50.202;7.852;2022-11-20T07:36:33;7.65;;;4.53;;
29218;SDS011;16421;50.202;7.852;2022-11-20T07:41:36;7.05;;;4.65;;
29218;SDS011;16421;50.202;7.852;2022-11-20T07:46:41;7.63;;;4.45;;
29218;SDS011;16421;50.202;7.852;2022-11-20T07:51:44;16.65;;;8.52;;
29218;SDS011;16421;50.202;7.852;2022-11-20T07:56:50;11.65;;;6.55;;
29218;SDS011;16421;50.202;7.852;2022-11-20T08:01:55;9.77;;;5.35;;
29218;SDS011;16421;50.202;7.852;2022-11-20T08:06:58;10.70;;;5.47;;
29218;SDS011;16421;50.202;7.852;2022-11-20T08:12:01;11.82;;;6.85;;
29218;SDS011;16421;50.202;7.852;2022-11-20T08:17:23;9.43;;;5.32;;
29218;SDS011;16421;50.202;7.852;2022-11-20T08:22:26;11.63;;;5.65;;
29218;SDS011;16421;50.202;7.852;2022-11-20T08:27:31;9.00;;;5.18;;
29218;SDS011;16421;50.202;7.852;2022-11-20T08:32:36;7.45;;;4.63;;
29218;SDS011;16421;50.202;7.852;2022-11-20T08:37:46;12.20;;;6.35;;
29218;SDS011;16421;50.202;7.852;2022-11-20T08:42:50;12.82;;;6.47;;
29218;SDS011;16421;50.202;7.852;2022-11-20T08:47:59;10.18;;;5.70;;
29218;SDS011;16421;50.202;7.852;2022-11-20T08:53:03;8.73;;;5.25;;
29218;SDS011;16421;50.202;7.852;2022-11-20T08:58:07;10.55;;;5.35;;
29218;SDS011;16421;50.202;7.852;2022-11-20T09:03:12;8.98;;;5.07;;
29218;SDS011;16421;50.202;7.852;2022-11-20T09:08:15;9.55;;;5.05;;
29218;SDS011;16421;50.202;7.852;2022-11-20T09:13:19;10.30;;;5.30;;
29218;SDS011;16421;50.202;7.852;2022-11-20T09:18:24;11.18;;;5.95;;
29218;SDS011;16421;50.202;7.852;2022-11-20T09:23:30;13.07;;;6.47;;
29218;SDS011;16421;50.202;7.852;2022-11-20T09:28:35;11.38;;;5.50;;
29218;SDS011;16421;50.202;7.852;2022-11-20T09:33:40;10.98;;;5.80;;
29218;SDS011;16421;50.202;7.852;2022-11-20T09:38:44;11.65;;;6.32;;
29218;SDS011;16421;50.202;7.852;2022-11-20T09:43:50;9.90;;;5.65;;
29218;SDS011;16421;50.202;7.852;2022-11-20T09:49:05;11.10;;;5.50;;
29218;SDS011;16421;50.202;7.852;2022-11-20T09:54:26;9.32;;;5.00;;
29218;SDS011;16421;50.202;7.852;2022-11-20T09:59:34;8.73;;;4.95;;
29218;SDS011;16421;50.202;7.852;2022-11-20T10:04:42;9.32;;;5.07;;
29218;SDS011;16421;50.202;7.852;2022-11-20T10:09:50;7.68;;;4.68;;
29218;SDS011;16421;50.202;7.852;2022-11-20T10:14:58;7.20;;;4.25;;
29218;SDS011;16421;50.202;7.852;2022-11-20T10:20:14;6.07;;;3.67;;
29218;SDS011;16421;50.202;7.852;2022-11-20T10:25:20;5.00;;;3.00;;
29218;SDS011;16421;50.202;7.852;2022-11-20T10:30:26;4.05;;;2.40;;
29218;SDS011;16421;50.202;7.852;2022-11-20T10:35:34;4.77;;;2.87;;
29218;SDS011;16421;50.202;7.852;2022-11-20T10:40:42;5.97;;;3.17;;
29218;SDS011;16421;50.202;7.852;2022-11-20T10:45:49;4.65;;;3.00;;
29218;SDS011;16421;50.202;7.852;2022-11-20T10:51:10;6.43;;;3.63;;
29218;SDS011;16421;50.202;7.852;2022-11-20T10:56:20;5.60;;;3.22;;
29218;SDS011;16421;50.202;7.852;2022-11-20T11:01:28;6.60;;;4.00;;
29218;SDS011;16421;50.202;7.852;2022-11-20T11:06:33;5.78;;;3.50;;
29218;SDS011;16421;50.202;7.852;2022-11-20T11:11:40;7.55;;;3.72;;
29218;SDS011;16421;50.202;7.852;2022-11-20T11:16:49;5.53;;;3.40;;
29218;SDS011;16421;50.202;7.852;2022-11-20T11:21:55;4.60;;;2.72;;
29218;SDS011;16421;50.202;7.852;2022-11-20T11:27:00;5.30;;;2.88;;
29218;SDS011;16421;50.202;7.852;2022-11-20T11:32:06;4.20;;;3.03;;
29218;SDS011;16421;50.202;7.852;2022-11-20T11:37:13;5.03;;;2.97;;
29218;SDS011;16421;50.202;7.852;2022-11-20T11:42:20;3.47;;;2.63;;
29218;SDS011;16421;50.202;7.852;2022-11-20T11:47:23;3.55;;;2.67;;
29218;SDS011;16421;50.202;7.852;2022-11-20T11:52:30;4.90;;;3.05;;
29218;SDS011;16421;50.202;7.852;2022-11-20T11:57:39;3.65;;;2.20;;
29218;SDS011;16421;50.202;7.852;2022-11-20T12:02:52;4.13;;;2.50;;
29218;SDS011;16421;50.202;7.852;2022-11-20T12:08:05;4.40;;;3.00;;
29218;SDS011;16421;50.202;7.852;2022-11-20T12:13:17;4.65;;;3.30;;
29218;SDS011;16421;50.202;7.852;2022-11-20T12:18:28;3.70;;;2.65;;
29218;SDS011;16421;50.202;7.852;2022-11-20T12:23:35;4.82;;;2.53;;
29218;SDS011;16421;50.202;7.852;2022-11-20T12:28:50;3.35;;;2.40;;
29218;SDS011;16421;50.202;7.852;2022-11-20T12:34:05;2.95;;;2.33;;
29218;SDS011;16421;50.202;7.852;2022-11-20T12:39:30;5.35;;;3.03;;
29218;SDS011;16421;50.202;7.852;2022-11-20T12:44:44;3.03;;;2.40;;
29218;SDS011;16421;50.202;7.852;2022-11-20T12:50:14;2.27;;;1.90;;
29218;SDS011;16421;50.202;7.852;2022-11-20T12:55:30;4.20;;;2.75;;
29218;SDS011;16421;50.202;7.852;2022-11-20T13:00:47;4.55;;;3.08;;
29218;SDS011;16421;50.202;7.852;2022-11-20T13:05:59;6.05;;;2.92;;
29218;SDS011;16421;50.202;7.852;2022-11-20T13:11:12;7.00;;;3.65;;
29218;SDS011;16421;50.202;7.852;2022-11-20T13:16:23;6.20;;;3.20;;
29218;SDS011;16421;50.202;7.852;2022-11-20T13:21:36;4.97;;;2.72;;
29218;SDS011;16421;50.202;7.852;2022-11-20T13:26:42;6.25;;;3.47;;
29218;SDS011;16421;50.202;7.852;2022-11-20T13:31:46;8.55;;;4.32;;
29218;SDS011;16421;50.202;7.852;2022-11-20T13:36:51;5.88;;;3.17;;
29218;SDS011;16421;50.202;7.852;2022-11-20T13:41:57;5.25;;;2.88;;
29218;SDS011;16421;50.202;7.852;2022-11-20T13:47:02;4.28;;;2.35;;
29218;SDS011;16421;50.202;7.852;2022-11-20T13:52:13;7.35;;;3.60;;
29218;SDS011;16421;50.202;7.852;2022-11-20T13:57:44;2.58;;;2.03;;
29218;SDS011;16421;50.202;7.852;2022-11-20T14:03:01;1.45;;;1.27;;
29218;SDS011;16421;50.202;7.852;2022-11-20T14:08:13;4.93;;;2.38;;
29218;SDS011;16421;50.202;7.852;2022-11-20T14:13:23;3.08;;;1.80;;
29218;SDS011;16421;50.202;7.852;2022-11-20T14:18:27;1.70;;;1.08;;
29218;SDS011;16421;50.202;7.852;2022-11-20T14:23:30;2.67;;;1.65;;
29218;SDS011;16421;50.202;7.852;2022-11-20T14:28:35;3.50;;;1.48;;
29218;SDS011;16421;50.202;7.852;2022-11-20T14:33:39;2.93;;;1.40;;
29218;SDS011;16421;50.202;7.852;2022-11-20T14:38:43;2.42;;;1.00;;
29218;SDS011;16421;50.202;7.852;2022-11-20T14:43:48;1.92;;;1.13;;
29218;SDS011;16421;50.202;7.852;2022-11-20T14:48:55;0.90;;;0.77;;
29218;SDS011;16421;50.202;7.852;2022-11-20T14:54:09;1.33;;;0.80;;
29218;SDS011;16421;50.202;7.852;2022-11-20T14:59:21;2.30;;;1.02;;
29218;SDS011;16421;50.202;7.852;2022-11-20T15:04:25;1.75;;;0.73;;
29218;SDS011;16421;50.202;7.852;2022-11-20T15:09:29;2.58;;;1.70;;
29218;SDS011;16421;50.202;7.852;2022-11-20T15:14:34;3.45;;;1.08;;
29218;SDS011;16421;50.202;7.852;2022-11-20T15:19:39;2.20;;;0.80;;
29218;SDS011;16421;50.202;7.852;2022-11-20T15:24:42;0.90;;;0.77;;
29218;SDS011;16421;50.202;7.852;2022-11-20T15:29:47;2.20;;;1.10;;
29218;SDS011;16421;50.202;7.852;2022-11-20T15:34:51;0.80;;;0.73;;
29218;SDS011;16421;50.202;7.852;2022-11-20T15:39:54;1.80;;;1.02;;
29218;SDS011;16421;50.202;7.852;2022-11-20T15:44:59;2.88;;;1.10;;
29218;SDS011;16421;50.202;7.852;2022-11-20T15:50:03;2.00;;;1.15;;
29218;SDS011;16421;50.202;7.852;2022-11-20T15:55:10;3.53;;;1.30;;
29218;SDS011;16421;50.202;7.852;2022-11-20T16:00:16;5.18;;;2.10;;
29218;SDS011;16421;50.202;7.852;2022-11-20T16:05:23;2.08;;;1.33;;
29218;SDS011;16421;50.202;7.852;2022-11-20T16:10:29;1.80;;;1.17;;
29218;SDS011;16421;50.202;7.852;2022-11-20T16:15:34;1.05;;;0.63;;
29218;SDS011;16421;50.202;7.852;2022-11-20T16:20:50;0.65;;;0.50;;
29218;SDS011;16421;50.202;7.852;2022-11-20T16:25:54;0.70;;;0.50;;
29218;SDS011;16421;50.202;7.852;2022-11-20T16:31:08;0.63;;;0.60;;
29218;SDS011;16421;50.202;7.852;2022-11-20T16:36:13;2.05;;;0.93;;
29218;SDS011;16421;50.202;7.852;2022-11-20T16:41:17;1.60;;;1.30;;
29218;SDS011;16421;50.202;7.852;2022-11-20T16:46:22;2.33;;;1.30;;
29218;SDS011;16421;50.202;7.852;2022-11-20T16:51:27;0.82;;;0.73;;
29218;SDS011;16421;50.202;7.852;2022-11-20T16:56:32;1.85;;;1.00;;
29218;SDS011;16421;50.202;7.852;2022-11-20T17:01:37;1.85;;;1.20;;
29218;SDS011;16421;50.202;7.852;2022-11-20T17:06:43;1.70;;;0.85;;
29218;SDS011;16421;50.202;7.852;2022-11-20T17:11:47;1.13;;;0.80;;
29218;SDS011;16421;50.202;7.852;2022-11-20T17:16:52;0.93;;;0.60;;
29218;SDS011;16421;50.202;7.852;2022-11-20T17:21:55;0.60;;;0.60;;
29218;SDS011;16421;50.202;7.852;2022-11-20T17:26:59;1.27;;;0.80;;
29218;SDS011;16421;50.202;7.852;2022-11-20T17:32:03;1.13;;;0.60;;
29218;SDS011;16421;50.202;7.852;2022-11-20T17:37:07;1.67;;;0.75;;
29218;SDS011;16421;50.202;7.852;2022-11-20T17:42:11;2.13;;;1.00;;
29218;SDS011;16421;50.202;7.852;2022-11-20T17:47:33;2.05;;;1.00;;
29218;SDS011;16421;50.202;7.852;2022-11-20T17:52:37;1.02;;;0.80;;
29218;SDS011;16421;50.202;7.852;2022-11-20T17:57:40;1.02;;;0.70;;
29218;SDS011;16421;50.202;7.852;2022-11-20T18:03:04;1.27;;;0.90;;
29218;SDS011;16421;50.202;7.852;2022-11-20T18:08:07;1.13;;;0.70;;
29218;SDS011;16421;50.202;7.852;2022-11-20T18:13:11;1.23;;;1.00;;
29218;SDS011;16421;50.202;7.852;2022-11-20T18:18:16;0.90;;;0.70;;
29218;SDS011;16421;50.202;7.852;2022-11-20T18:23:23;1.40;;;1.10;;
29218;SDS011;16421;50.202;7.852;2022-11-20T18:28:26;1.23;;;1.02;;
29218;SDS011;16421;50.202;7.852;2022-11-20T18:33:31;0.73;;;0.70;;
29218;SDS011;16421;50.202;7.852;2022-11-20T18:38:35;0.70;;;0.57;;
29218;SDS011;16421;50.202;7.852;2022-11-20T18:43:40;2.90;;;1.63;;
29218;SDS011;16421;50.202;7.852;2022-11-20T18:49:03;5.53;;;2.10;;
29218;SDS011;16421;50.202;7.852;2022-11-20T18:54:06;1.23;;;0.88;;
29218;SDS011;16421;50.202;7.852;2022-11-20T18:59:10;0.88;;;0.80;;
29218;SDS011;16421;50.202;7.852;2022-11-20T19:04:15;0.68;;;0.55;;
29218;SDS011;16421;50.202;7.852;2022-11-20T19:09:19;0.63;;;0.50;;
29218;SDS011;16421;50.202;7.852;2022-11-20T19:14:24;0.40;;;0.40;;
29218;SDS011;16421;50.202;7.852;2022-11-20T19:19:28;1.27;;;0.43;;
29218;SDS011;16421;50.202;7.852;2022-11-20T19:24:32;4.32;;;2.72;;
29218;SDS011;16421;50.202;7.852;2022-11-20T19:29:35;2.58;;;1.70;;
29218;SDS011;16421;50.202;7.852;2022-11-20T19:34:40;1.00;;;0.85;;
29218;SDS011;16421;50.202;7.852;2022-11-20T19:39:44;1.05;;;0.68;;
29218;SDS011;16421;50.202;7.852;2022-11-20T19:44:47;1.75;;;1.00;;
29218;SDS011;16421;50.202;7.852;2022-11-20T19:49:52;2.53;;;1.33;;
29218;SDS011;16421;50.202;7.852;2022-11-20T19:54:55;3.72;;;1.88;;
29218;SDS011;16421;50.202;7.852;2022-11-20T19:59:59;1.75;;;1.27;;
29218;SDS011;16421;50.202;7.852;2022-11-20T20:05:07;1.33;;;0.90;;
29218;SDS011;16421;50.202;7.852;2022-11-20T20:10:10;1.80;;;1.30;;
29218;SDS011;16421;50.202;7.852;2022-11-20T20:15:16;1.00;;;0.80;;
29218;SDS011;16421;50.202;7.852;2022-11-20T20:20:24;1.42;;;0.70;;
29218;SDS011;16421;50.202;7.852;2022-11-20T20:25:27;1.35;;;0.95;;
29218;SDS011;16421;50.202;7.852;2022-11-20T20:30:31;1.42;;;1.13;;
29218;SDS011;16421;50.202;7.852;2022-11-20T20:35:39;2.30;;;1.02;;
29218;SDS011;16421;50.202;7.852;2022-11-20T20:40:46;1.98;;;1.17;;
29218;SDS011;16421;50.202;7.852;2022-11-20T20:45:50;2.30;;;0.90;;
29218;SDS011;16421;50.202;7.852;2022-11-20T20:50:55;4.00;;;1.60;;
29218;SDS011;16421;50.202;7.852;2022-11-20T20:56:00;4.93;;;2.13;;
29218;SDS011;16421;50.202;7.852;2022-11-20T21:01:05;5.88;;;1.90;;
29218;SDS011;16421;50.202;7.852;2022-11-20T21:06:11;3.85;;;1.45;;
29218;SDS011;16421;50.202;7.852;2022-11-20T21:11:16;1.90;;;0.90;;
29218;SDS011;16421;50.202;7.852;2022-11-20T21:16:20;5.27;;;1.23;;
29218;SDS011;16421;50.202;7.852;2022-11-20T21:21:26;3.20;;;1.52;;
29218;SDS011;16421;50.202;7.852;2022-11-20T21:26:47;6.30;;;2.20;;
29218;SDS011;16421;50.202;7.852;2022-11-20T21:31:52;3.78;;;1.70;;
29218;SDS011;16421;50.202;7.852;2022-11-20T21:36:57;12.20;;;3.08;;
29218;SDS011;16421;50.202;7.852;2022-11-20T21:42:01;7.40;;;2.08;;
29218;SDS011;16421;50.202;7.852;2022-11-20T21:47:04;4.03;;;1.55;;
29218;SDS011;16421;50.202;7.852;2022-11-20T21:52:09;3.65;;;1.80;;
29218;SDS011;16421;50.202;7.852;2022-11-20T21:57:13;4.33;;;1.63;;
29218;SDS011;16421;50.202;7.852;2022-11-20T22:02:16;5.88;;;2.78;;
29218;SDS011;16421;50.202;7.852;2022-11-20T22:07:21;4.57;;;1.63;;
29218;SDS011;16421;50.202;7.852;2022-11-20T22:12:25;1.73;;;1.00;;
29218;SDS011;16421;50.202;7.852;2022-11-20T22:17:28;2.42;;;1.25;;
29218;SDS011;16421;50.202;7.852;2022-11-20T22:22:51;2.13;;;0.75;;
29218;SDS011;16421;50.202;7.852;2022-11-20T22:27:54;3.72;;;1.30;;
29218;SDS011;16421;50.202;7.852;2022-11-20T22:32:58;3.67;;;1.08;;
29218;SDS011;16421;50.202;7.852;2022-11-20T22:38:03;3.50;;;1.00;;
29218;SDS011;16421;50.202;7.852;2022-11-20T22:43:07;4.20;;;1.05;;
29218;SDS011;16421;50.202;7.852;2022-11-20T22:48:11;3.10;;;0.93;;
29218;SDS011;16421;50.202;7.852;2022-11-20T22:53:16;2.50;;;0.90;;
29218;SDS011;16421;50.202;7.852;2022-11-20T22:58:19;4.22;;;1.40;;
29218;SDS011;16421;50.202;7.852;2022-11-20T23:03:22;4.38;;;1.40;;
29218;SDS011;16421;50.202;7.852;2022-11-20T23:08:27;2.42;;;1.10;;
29218;SDS011;16421;50.202;7.852;2022-11-20T23:13:32;3.40;;;0.85;;
29218;SDS011;16421;50.202;7.852;2022-11-20T23:18:36;4.72;;;1.23;;
29218;SDS011;16421;50.202;7.852;2022-11-20T23:23:41;3.35;;;1.10;;
29218;SDS011;16421;50.202;7.852;2022-11-20T23:28:45;9.55;;;1.42;;
29218;SDS011;16421;50.202;7.852;2022-11-20T23:33:48;3.92;;;0.90;;
29218;SDS011;16421;50.202;7.852;2022-11-20T23:38:53;4.55;;;1.10;;
29218;SDS011;16421;50.202;7.852;2022-11-20T23:43:56;1.75;;;0.60;;
29218;SDS011;16421;50.202;7.852;2022-11-20T23:49:00;6.47;;;1.35;;
29218;SDS011;16421;50.202;7.852;2022-11-20T23:54:05;2.63;;;0.90;;
29218;SDS011;16421;50.202;7.852;2022-11-20T23:59:08;3.85;;;0.80;;
